Time;durP1;ratioP1;P1;durP2;ratioP2;P2;SDS_P1;SDS_P2;PMS_P1;PMS_P2;Temp;Humidity;BMP_temperature;BMP_pressure;BME280_temperature;BME280_humidity;BME280_pressure;Samples;Min_cycle;Max_cycle;Signal;HPM_P1;HPM_P2
2022/01/15 00:02:19;;;;;;;4.77;3.97;;;5.40;84.60;;;5.19;59.21;95236.63;5077179;28;20438;-62
2022/01/15 00:04:47;;;;;;;3.90;2.90;;;5.40;84.60;;;5.17;59.45;95249.78;5073808;28;20517;-61
2022/01/15 00:07:15;;;;;;;5.40;4.37;;;5.40;85.10;;;5.16;59.05;95253.31;5058716;28;20502;-66
2022/01/15 00:09:49;;;;;;;5.37;4.00;;;5.40;85.20;;;5.14;59.48;95249.97;5078270;28;20445;-67
2022/01/15 00:12:17;;;;;;;6.27;4.00;;;5.30;85.50;;;5.14;59.50;95243.91;5072232;28;20443;-66
2022/01/15 00:14:45;;;;;;;7.50;4.63;;;5.30;85.80;;;5.14;59.82;95246.50;5073215;28;20523;-62
2022/01/15 00:17:21;;;;;;;6.90;4.60;;;5.30;86.30;;;5.13;59.73;95252.66;5071378;28;21000;-62
2022/01/15 00:19:50;;;;;;;4.53;4.10;;;5.30;86.00;;;5.11;60.08;95242.34;5074559;28;20490;-66
2022/01/15 00:22:20;;;;;;;5.23;4.23;;;5.30;86.30;;;5.11;59.69;95228.44;5079593;28;20815;-62
2022/01/15 00:24:49;;;;;;;5.37;3.60;;;5.30;86.10;;;5.11;60.29;95231.06;5075439;28;20458;-67
2022/01/15 00:27:16;;;;;;;5.50;4.50;;;5.30;86.90;;;5.11;59.88;95234.50;5081362;28;20443;-66
2022/01/15 00:29:48;;;;;;;3.63;3.33;;;5.30;86.70;;;5.13;60.49;95242.25;5079256;28;20474;-65
2022/01/15 00:32:19;;;;;;;3.10;2.90;;;5.30;87.00;;;5.14;60.29;95241.28;5083219;28;20463;-66
2022/01/15 00:34:46;;;;;;;5.10;4.00;;;5.30;86.90;;;5.14;60.55;95243.91;5079187;28;20470;-63
2022/01/15 00:37:15;;;;;;;7.90;4.70;;;5.30;87.30;;;5.14;60.37;95244.75;5083463;28;20504;-62
2022/01/15 00:39:43;;;;;;;5.90;4.40;;;5.30;87.20;;;5.14;60.47;95244.75;5081523;28;20558;-65
2022/01/15 00:42:13;;;;;;;6.10;5.07;;;5.30;87.20;;;5.14;60.43;95246.50;5081897;28;20435;-63
2022/01/15 00:44:42;;;;;;;5.17;4.03;;;5.30;87.70;;;5.13;60.24;95252.66;5081485;28;20446;-62
2022/01/15 00:47:09;;;;;;;7.47;4.67;;;5.30;87.10;;;5.14;60.38;95269.97;5081050;28;20537;-62
2022/01/15 00:49:37;;;;;;;11.10;4.70;;;5.30;87.60;;;5.14;60.69;95269.97;5078827;28;20459;-64
2022/01/15 00:52:07;;;;;;;7.20;4.80;;;5.30;87.90;;;5.15;60.39;95266.44;5080766;28;20871;-66
2022/01/15 00:54:36;;;;;;;7.73;4.40;;;5.30;87.70;;;5.16;60.68;95273.34;5078748;28;20469;-62
2022/01/15 00:57:06;;;;;;;7.17;5.17;;;5.30;87.70;;;5.14;61.08;95276.03;5081018;28;20961;-64
2022/01/15 00:59:36;;;;;;;5.87;5.10;;;5.30;88.40;;;5.15;61.06;95272.47;5075372;28;20459;-65
2022/01/15 01:02:04;;;;;;;5.10;4.07;;;5.30;88.30;;;5.15;60.93;95269.03;5082639;28;20480;-66
2022/01/15 01:04:32;;;;;;;6.47;4.50;;;5.30;88.20;;;5.16;60.79;95263.72;5060882;28;20952;-65
2022/01/15 01:07:00;;;;;;;4.77;4.30;;;5.30;88.00;;;5.16;60.64;95268.94;5085783;28;20459;-67
2022/01/15 01:09:38;;;;;;;4.47;4.07;;;5.30;88.00;;;5.16;60.42;95265.50;5077705;28;20454;-61
2022/01/15 01:12:24;;;;;;;6.03;4.20;;;5.30;88.00;;;5.17;60.44;95269.78;5082087;28;20453;-65
2022/01/15 01:20:35;;;;;;;8.53;5.13;;;5.30;87.90;;;5.20;60.55;95265.22;5081119;28;20538;-62
2022/01/15 01:23:03;;;;;;;7.60;5.27;;;5.40;88.00;;;5.19;60.68;95268.75;5085616;28;20433;-62
2022/01/15 01:25:36;;;;;;;4.87;4.37;;;5.40;87.90;;;5.20;60.55;95261.75;5079839;28;20470;-66
2022/01/15 01:28:09;;;;;;;5.27;3.93;;;5.40;87.70;;;5.21;60.73;95255.63;5078491;28;20516;-62
2022/01/15 01:30:46;;;;;;;7.10;4.90;;;5.40;87.70;;;5.20;60.31;95249.56;5077694;28;20470;-64
2022/01/15 01:33:30;;;;;;;11.30;4.90;;;5.40;87.50;;;5.23;60.42;95245.91;5080166;28;20458;-61
2022/01/15 01:36:09;;;;;;;5.50;3.90;;;5.40;87.50;;;5.23;60.25;95243.31;5082696;28;20470;-62
2022/01/15 01:38:42;;;;;;;8.93;4.33;;;5.40;87.40;;;5.24;60.48;95239.78;5079479;28;21003;-66
2022/01/15 01:41:15;;;;;;;6.83;4.23;;;5.40;87.70;;;5.20;60.10;95244.38;5081783;28;20628;-66
2022/01/15 01:43:49;;;;;;;5.10;3.67;;;5.40;87.20;;;5.25;60.03;95248.44;5079860;28;20521;-66
2022/01/15 01:46:30;;;;;;;4.90;3.90;;;5.40;87.30;;;5.26;60.01;95243.13;5076730;28;20538;-62
2022/01/15 01:48:59;;;;;;;8.90;4.63;;;5.40;87.00;;;5.28;59.94;95263.88;5077372;28;20458;-65
2022/01/15 01:51:30;;;;;;;5.20;4.53;;;5.40;86.80;;;5.27;59.74;95247.41;5073228;28;20470;-62
2022/01/15 01:53:57;;;;;;;6.57;4.77;;;5.40;86.50;;;5.28;59.83;95251.66;5077269;28;20442;-61
2022/01/15 01:56:24;;;;;;;6.80;5.00;;;5.40;86.50;;;5.29;59.58;95255.97;5076121;28;20493;-63
2022/01/15 01:58:51;;;;;;;7.07;5.20;;;5.40;86.30;;;5.28;59.32;95256.88;5081032;28;20439;-62
2022/01/15 02:01:20;;;;;;;6.00;4.60;;;5.50;86.00;;;5.30;59.33;95264.59;5077019;28;20924;-65
2022/01/15 02:03:48;;;;;;;7.03;4.53;;;5.50;85.60;;;5.30;59.14;95251.56;5078911;28;20529;-62
2022/01/15 02:06:15;;;;;;;10.00;5.30;;;5.50;85.40;;;5.30;58.82;95257.63;5084019;28;20490;-64
2022/01/15 02:08:43;;;;;;;5.70;5.07;;;5.50;85.10;;;5.29;58.86;95255.13;5082697;28;20457;-62
2022/01/15 02:11:10;;;;;;;7.70;5.60;;;5.50;84.70;;;5.27;58.86;95252.63;5077316;28;20489;-61
2022/01/15 02:13:41;;;;;;;5.60;4.87;;;5.40;84.60;;;5.27;58.58;95255.22;5074244;28;20451;-66
2022/01/15 02:16:08;;;;;;;6.83;5.40;;;5.50;84.70;;;5.26;58.93;95247.50;5077237;28;21016;-61
2022/01/15 02:18:37;;;;;;;6.53;4.57;;;5.40;84.60;;;5.26;58.80;95252.72;5076015;28;20443;-66
2022/01/15 02:23:53;;;;;;;6.60;4.83;;;5.40;85.00;;;5.25;59.01;95256.25;5078776;28;20421;-66
2022/01/15 02:26:21;;;;;;;5.13;4.40;;;5.40;85.20;;;5.25;59.20;95246.69;5079174;28;20854;-62
2022/01/15 02:28:55;;;;;;;6.03;4.40;;;5.40;85.40;;;5.25;59.23;95259.72;5080043;28;20538;-61
2022/01/15 02:31:22;;;;;;;4.47;4.03;;;5.40;85.70;;;5.25;59.56;95257.09;5077217;28;20462;-66
2022/01/15 02:33:51;;;;;;;7.20;4.33;;;5.40;85.50;;;5.27;59.07;95263.06;5079139;28;20445;-61
2022/01/15 02:36:21;;;;;;;6.20;4.50;;;5.40;85.40;;;5.27;59.05;95260.44;5071725;28;20467;-62
2022/01/15 02:38:48;;;;;;;7.03;3.97;;;5.40;85.40;;;5.28;59.16;95262.09;5076340;28;20451;-66
2022/01/15 02:41:20;;;;;;;4.33;3.93;;;5.50;85.40;;;5.29;59.34;95262.97;5075523;28;20815;-62
2022/01/15 02:43:48;;;;;;;8.50;5.17;;;5.50;85.30;;;5.29;58.97;95263.78;5075306;28;20461;-65
2022/01/15 02:46:33;;;;;;;6.20;4.30;;;5.50;85.00;;;5.30;59.08;95270.69;5079597;28;20512;-62
2022/01/15 02:49:03;;;;;;;7.33;4.50;;;5.50;84.70;;;5.31;58.83;95268.91;5076247;28;20858;-64
2022/01/15 02:51:33;;;;;;;6.50;4.83;;;5.50;84.70;;;5.30;58.73;95264.59;5075438;28;20474;-66
2022/01/15 02:54:00;;;;;;;5.37;4.50;;;5.50;84.70;;;5.30;58.70;95269.81;5081916;28;20450;-65
2022/01/15 02:56:30;;;;;;;6.80;4.73;;;5.50;84.70;;;5.29;58.70;95265.56;5075782;28;20479;-62
2022/01/15 02:58:57;;;;;;;6.10;4.53;;;5.50;84.70;;;5.28;58.54;95277.75;5077427;28;20461;-65
2022/01/15 03:01:24;;;;;;;4.83;4.10;;;5.50;84.70;;;5.29;58.56;95278.59;5080079;28;20494;-66
2022/01/15 03:03:52;;;;;;;4.53;4.07;;;5.40;84.40;;;5.26;58.25;95277.00;5074216;28;20450;-64
2022/01/15 03:06:20;;;;;;;7.30;5.10;;;5.40;84.00;;;5.24;58.03;95272.84;5073851;28;20466;-60
2022/01/15 03:08:50;;;;;;;6.53;5.80;;;5.40;83.50;;;5.21;57.64;95276.47;5081270;28;20464;-62
2022/01/15 03:11:17;;;;;;;6.13;5.10;;;5.40;83.10;;;5.17;57.69;95283.66;5075126;28;20474;-62
2022/01/15 03:13:45;;;;;;;14.10;7.60;;;5.40;83.10;;;5.16;57.46;95276.78;5079061;28;20459;-62
2022/01/15 03:16:14;;;;;;;11.63;6.40;;;5.40;82.70;;;5.15;57.59;95279.47;5078543;28;20475;-62
2022/01/15 03:18:41;;;;;;;8.90;5.97;;;5.40;82.80;;;5.12;57.33;95264.03;5074462;28;21004;-66
2022/01/15 03:21:08;;;;;;;11.97;6.20;;;5.30;82.20;;;5.09;57.38;95265.03;5076539;28;20495;-63
2022/01/15 03:23:36;;;;;;;8.67;5.90;;;5.30;82.20;;;5.09;57.49;95264.22;5072557;28;20455;-62
2022/01/15 03:26:05;;;;;;;12.53;7.43;;;5.30;82.20;;;5.05;57.44;95266.19;5083808;28;21024;-65
2022/01/15 03:28:32;;;;;;;11.50;6.77;;;5.20;82.00;;;5.02;57.51;95263.78;5079775;28;20526;-61
2022/01/15 03:31:00;;;;;;;12.10;6.80;;;5.20;82.10;;;4.97;57.37;95277.09;5079098;28;20482;-62
2022/01/15 03:33:27;;;;;;;18.30;6.17;;;5.20;82.10;;;4.93;57.50;95257.34;5076026;28;20472;-65
2022/01/15 03:35:54;;;;;;;13.77;7.60;;;5.10;82.00;;;4.90;57.45;95267.16;5077122;28;20478;-65
2022/01/15 03:38:21;;;;;;;10.17;6.63;;;5.10;82.10;;;4.87;57.42;95273.38;5078288;28;20442;-65
2022/01/15 03:40:51;;;;;;;11.30;6.80;;;5.10;82.20;;;4.84;57.53;95276.16;5076537;28;20489;-66
2022/01/15 03:43:20;;;;;;;10.57;6.37;;;5.00;82.20;;;4.81;57.66;95269.38;5077641;28;20870;-60
2022/01/15 03:45:47;;;;;;;9.90;6.50;;;5.00;82.40;;;4.81;57.50;95284.19;5074029;28;20597;-62
2022/01/15 03:48:15;;;;;;;12.00;8.00;;;5.00;82.40;;;4.78;57.84;95276.56;5077726;28;20455;-62
2022/01/15 03:50:42;;;;;;;10.23;6.60;;;5.00;82.60;;;4.77;57.94;95285.28;5076688;28;20863;-62
2022/01/15 03:53:09;;;;;;;9.37;5.23;;;5.00;82.80;;;4.77;57.78;95275.72;5071394;28;20447;-62
2022/01/15 03:55:37;;;;;;;8.60;5.10;;;5.00;82.90;;;4.77;57.76;95282.69;5075194;28;20497;-62
2022/01/15 03:58:04;;;;;;;10.73;6.13;;;5.00;83.10;;;4.78;58.06;95289.56;5073250;28;20442;-62
2022/01/15 04:00:33;;;;;;;8.60;6.20;;;5.00;83.10;;;4.80;57.96;95291.16;5076495;28;20474;-66
2022/01/15 04:03:00;;;;;;;9.40;6.57;;;5.00;83.10;;;4.82;58.18;95297.13;5082007;28;20454;-63
2022/01/15 04:05:27;;;;;;;8.00;5.63;;;5.00;83.30;;;4.83;57.92;95290.97;5081258;28;20469;-66
2022/01/15 04:07:55;;;;;;;6.37;5.33;;;5.00;83.30;;;4.83;58.03;95287.53;5084440;28;20450;-66
2022/01/15 04:10:22;;;;;;;12.90;5.93;;;5.10;83.30;;;4.83;58.16;95303.16;5079904;28;20481;-66
2022/01/15 04:12:50;;;;;;;6.57;5.50;;;5.00;83.30;;;4.85;58.13;95306.53;5083302;28;20646;-65
2022/01/15 04:15:18;;;;;;;8.33;5.93;;;5.00;83.40;;;4.86;58.22;95318.59;5075147;28;20487;-62
2022/01/15 04:17:48;;;;;;;18.50;7.03;;;5.00;83.40;;;4.86;58.13;95321.22;5078104;28;20555;-66
2022/01/15 04:20:18;;;;;;;10.40;6.50;;;5.00;83.30;;;4.87;58.25;95322.91;5077759;28;20526;-63
2022/01/15 04:22:46;;;;;;;10.07;6.77;;;5.00;83.40;;;4.87;57.79;95328.09;5081975;28;20489;-62
2022/01/15 04:25:13;;;;;;;12.10;7.80;;;5.00;83.40;;;4.86;58.21;95334.25;5080955;28;20471;-66
2022/01/15 04:27:43;;;;;;;10.07;6.70;;;5.00;83.40;;;4.85;58.25;95332.59;5081643;28;20992;-62
2022/01/15 04:30:12;;;;;;;10.67;8.20;;;5.00;83.40;;;4.84;58.22;95351.75;5081457;28;20553;-65
2022/01/15 04:32:39;;;;;;;13.00;7.87;;;5.10;83.50;;;4.83;58.18;95343.09;5077929;28;20465;-66
2022/01/15 04:35:09;;;;;;;11.83;7.43;;;5.10;83.60;;;4.81;58.26;95350.16;5076931;28;20535;-62
2022/01/15 04:37:39;;;;;;;12.80;7.43;;;5.00;83.40;;;4.80;58.38;95350.25;5076692;28;20986;-67
2022/01/15 04:40:08;;;;;;;13.13;7.77;;;5.00;83.60;;;4.79;58.19;95359.03;5078748;28;20537;-66
2022/01/15 04:42:35;;;;;;;13.73;8.10;;;5.00;83.70;;;4.79;58.37;95335.56;5075111;28;20540;-66
2022/01/15 04:45:06;;;;;;;9.67;6.73;;;5.00;83.80;;;4.78;58.50;95337.31;5078523;28;20507;-62
2022/01/15 04:47:33;;;;;;;12.90;7.43;;;5.00;84.10;;;4.77;58.08;95335.66;5076840;28;20516;-62
2022/01/15 04:50:00;;;;;;;10.60;5.90;;;5.00;84.20;;;4.77;58.50;95345.22;5080482;28;20449;-61
2022/01/15 04:52:30;;;;;;;9.30;7.03;;;5.00;84.20;;;4.77;58.52;95340.00;5080669;28;20442;-63
2022/01/15 04:54:57;;;;;;;12.00;7.63;;;5.00;84.20;;;4.77;58.40;95350.44;5083907;28;20442;-62
2022/01/15 04:57:25;;;;;;;10.63;7.10;;;4.90;84.10;;;4.74;58.63;95350.63;5080038;28;20458;-66
2022/01/15 04:59:52;;;;;;;14.33;8.23;;;4.90;84.10;;;4.72;58.48;95347.28;5079123;28;20450;-66
2022/01/15 05:02:19;;;;;;;11.47;7.57;;;4.90;84.20;;;4.69;58.77;95347.47;5078462;28;21006;-66
2022/01/15 05:04:47;;;;;;;15.33;8.63;;;4.90;84.20;;;4.67;58.80;95355.38;5077673;28;20474;-66
2022/01/15 05:07:14;;;;;;;14.23;8.97;;;4.90;84.20;;;4.64;59.33;95352.94;5079900;28;20866;-65
2022/01/15 05:09:46;;;;;;;10.67;7.07;;;4.80;85.00;;;4.62;59.34;95357.41;5082850;28;20478;-65
2022/01/15 05:12:25;;;;;;;11.23;8.40;;;4.80;85.30;;;4.61;59.27;95366.16;5083238;28;20442;-62
2022/01/15 05:14:53;;;;;;;11.60;8.63;;;4.80;85.40;;;4.60;59.65;95364.47;5081747;28;20434;-62
2022/01/15 05:17:20;;;;;;;16.57;7.60;;;4.80;86.00;;;4.57;59.89;95364.66;5080450;28;20442;-62
2022/01/15 05:19:47;;;;;;;16.70;8.23;;;4.80;85.80;;;4.56;59.86;95371.63;5080339;28;20451;-62
2022/01/15 05:22:15;;;;;;;13.93;8.40;;;4.80;85.90;;;4.56;59.54;95382.06;5075710;28;20478;-66
2022/01/15 05:24:43;;;;;;;10.80;8.10;;;4.80;86.00;;;4.56;59.79;95373.41;5085557;28;20595;-62
2022/01/15 05:27:11;;;;;;;13.27;9.10;;;4.70;86.00;;;4.55;59.68;95374.34;5074349;28;20447;-62
2022/01/15 05:29:38;;;;;;;18.73;9.37;;;4.70;86.20;;;4.54;60.04;95380.47;5078866;28;20455;-65
2022/01/15 05:32:07;;;;;;;11.67;8.70;;;4.70;86.40;;;4.51;59.73;95388.47;5075812;28;20511;-62
2022/01/15 05:34:34;;;;;;;13.50;8.90;;;4.70;86.30;;;4.50;59.98;95392.84;5075840;28;20446;-68
2022/01/15 05:37:02;;;;;;;26.97;19.17;;;4.70;86.20;;;4.49;60.59;95383.34;5080563;28;20593;-62
2022/01/15 05:39:29;;;;;;;15.67;11.23;;;4.70;86.90;;;4.48;59.95;95387.72;5081201;28;20459;-65
2022/01/15 05:41:58;;;;;;;12.27;9.30;;;4.70;86.70;;;4.47;60.26;95388.63;5079274;28;20873;-65
2022/01/15 05:44:25;;;;;;;13.13;8.50;;;4.70;86.80;;;4.46;59.93;95394.78;5080422;28;20503;-66
2022/01/15 05:46:53;;;;;;;12.27;8.53;;;4.60;86.50;;;4.45;60.24;95392.28;5074587;28;20469;-66
2022/01/15 05:49:20;;;;;;;21.80;9.37;;;4.60;86.90;;;4.43;60.59;95396.72;5076235;28;20558;-62
2022/01/15 05:51:47;;;;;;;13.40;8.93;;;4.70;87.20;;;4.44;60.29;95398.41;5080028;28;20884;-63
2022/01/15 05:54:15;;;;;;;12.80;8.50;;;4.60;86.90;;;4.43;60.28;95401.94;5078778;28;20566;-64
2022/01/15 05:56:42;;;;;;;15.60;9.17;;;4.60;86.80;;;4.41;60.25;95396.81;5080964;28;20505;-65
2022/01/15 05:59:11;;;;;;;14.53;8.60;;;4.60;87.20;;;4.40;60.63;95405.56;5078316;28;20858;-66
2022/01/15 06:01:38;;;;;;;15.70;10.20;;;4.60;87.40;;;4.41;60.10;95411.59;5079958;28;20900;-66
2022/01/15 06:04:06;;;;;;;17.50;11.47;;;4.60;87.40;;;4.41;60.49;95419.41;5078322;28;20447;-66
2022/01/15 06:06:33;;;;;;;21.23;12.53;;;4.60;87.40;;;4.42;60.38;95424.53;5077832;28;20470;-66
2022/01/15 06:09:00;;;;;;;16.17;10.87;;;4.60;87.40;;;4.42;60.56;95426.31;5077019;28;20447;-66
2022/01/15 06:11:28;;;;;;;17.17;10.40;;;4.60;87.70;;;4.43;60.58;95431.44;5075832;28;20475;-66
2022/01/15 06:13:55;;;;;;;15.30;8.47;;;4.60;87.70;;;4.45;60.57;95426.97;5076698;28;20449;-66
2022/01/15 06:16:24;;;;;;;12.20;8.43;;;4.60;87.70;;;4.44;60.59;95442.69;5078460;28;20475;-63
2022/01/15 06:18:52;;;;;;;18.90;10.13;;;4.60;87.50;;;4.45;60.63;95449.59;5079676;28;20803;-66
2022/01/15 06:21:19;;;;;;;16.53;9.70;;;4.60;87.80;;;4.45;61.02;95454.78;5078693;28;20469;-65
2022/01/15 06:23:47;;;;;;;15.20;10.20;;;4.70;88.30;;;4.47;60.67;95460.75;5079106;28;20813;-63
2022/01/15 06:26:14;;;;;;;14.60;9.87;;;4.60;87.90;;;4.60;61.02;95459.13;5079034;28;20986;-62
2022/01/15 06:28:41;;;;;;;14.73;9.90;;;4.80;88.60;;;4.95;60.75;95455.38;5082949;28;20451;-67
2022/01/15 06:31:09;;;;;;;13.30;9.10;;;5.10;88.70;;;5.48;59.96;95443.44;5075408;28;20470;-62
2022/01/15 06:33:37;;;;;;;18.93;9.87;;;5.50;87.80;;;6.07;58.72;95432.84;5078896;28;20451;-67
2022/01/15 06:36:05;;;;;;;16.37;9.30;;;6.10;86.50;;;6.67;57.11;95435.91;5076388;28;20471;-62
2022/01/15 06:38:33;;;;;;;14.30;9.70;;;6.60;85.00;;;7.24;56.60;95441.72;5077649;28;20992;-62
2022/01/15 06:41:11;;;;;;;24.57;11.93;;;7.10;83.30;;;7.85;55.27;95450.53;5076072;28;20477;-66
2022/01/15 06:43:39;;;;;;;16.33;9.87;;;7.80;81.20;;;8.42;54.10;95440.34;5079175;28;20447;-63
2022/01/15 06:46:07;;;;;;;13.13;9.03;;;8.40;79.30;;;8.96;53.26;95439.84;5076800;28;20488;-67
2022/01/15 06:48:34;;;;;;;13.60;10.67;;;9.00;78.50;;;9.53;51.93;95434.69;5078511;28;20998;-63
2022/01/15 06:51:03;;;;;;;11.93;9.23;;;9.60;76.30;;;10.07;51.37;95440.09;5076581;28;20489;-62
2022/01/15 06:53:30;;;;;;;13.57;8.60;;;10.10;74.00;;;10.58;50.70;95452.66;5074787;28;20459;-63
2022/01/15 06:55:58;;;;;;;19.07;10.53;;;10.60;72.20;;;11.02;49.11;95445.50;5077289;28;20556;-67
2022/01/15 06:58:25;;;;;;;11.70;9.10;;;11.00;69.50;;;11.49;48.80;95458.25;5075524;28;20458;-67
2022/01/15 07:00:53;;;;;;;14.20;9.17;;;11.50;69.20;;;11.98;47.57;95459.34;5074727;28;20562;-63
2022/01/15 07:03:20;;;;;;;13.50;9.50;;;12.10;66.60;;;12.52;46.72;95461.69;5079198;28;21025;-66
2022/01/15 07:05:48;;;;;;;12.67;9.43;;;12.60;65.50;;;13.02;46.76;95468.63;5076037;28;20494;-67
2022/01/15 07:08:17;;;;;;;21.70;11.40;;;13.20;65.20;;;13.49;45.88;95474.00;5071752;28;20938;-67
2022/01/15 07:10:44;;;;;;;12.83;9.57;;;13.60;63.10;;;13.90;44.96;95479.88;5078501;28;20573;-66
2022/01/15 07:13:12;;;;;;;15.47;10.10;;;14.10;61.10;;;14.32;44.41;95467.97;5075624;28;20458;-66
2022/01/15 07:15:39;;;;;;;17.50;9.30;;;14.40;59.70;;;14.70;43.63;95482.81;5079473;28;20473;-66
2022/01/15 07:18:06;;;;;;;16.20;9.77;;;14.80;58.50;;;15.01;42.74;95481.59;5081539;28;20975;-63
2022/01/15 07:20:34;;;;;;;13.43;8.73;;;15.20;57.50;;;15.35;42.80;95472.94;5078139;28;20474;-63
2022/01/15 07:23:01;;;;;;;13.70;9.80;;;15.50;57.30;;;15.63;41.92;95476.28;5075329;28;20498;-63
2022/01/15 07:25:30;;;;;;;16.90;10.70;;;15.70;55.80;;;15.59;41.35;95477.59;5077206;28;20477;-63
2022/01/15 07:27:58;;;;;;;13.03;9.70;;;15.90;54.20;;;15.54;41.06;95474.59;5078350;28;20921;-63
2022/01/15 07:30:26;;;;;;;12.73;10.67;;;15.90;53.00;;;15.47;40.41;95478.81;5071563;28;20520;-63
2022/01/15 07:32:53;;;;;;;16.70;10.63;;;15.90;51.50;;;15.43;40.51;95483.63;5069456;28;20528;-72
2022/01/15 07:35:20;;;;;;;15.43;10.80;;;15.90;51.90;;;15.50;40.45;95487.28;5073544;28;20470;-65
2022/01/15 07:37:48;;;;;;;15.23;10.27;;;15.90;52.40;;;15.27;39.72;95486.94;5078077;28;20451;-63
2022/01/15 07:40:15;;;;;;;18.97;9.40;;;15.60;50.90;;;14.40;40.09;95499.00;5076047;28;20855;-68
2022/01/15 07:42:44;;;;;;;18.80;11.07;;;14.90;50.40;;;13.43;41.43;95498.34;5073624;28;20489;-61
2022/01/15 07:45:14;;;;;;;15.00;10.87;;;14.00;51.50;;;12.69;42.23;95500.59;5074843;28;21011;-67
2022/01/15 07:47:41;;;;;;;16.13;10.90;;;13.20;51.90;;;12.38;42.67;95505.94;5076300;28;20447;-63
2022/01/15 07:50:11;;;;;;;15.07;11.10;;;12.60;52.90;;;11.87;43.67;95509.50;5080849;28;20557;-67
2022/01/15 07:52:39;;;;;;;17.70;11.73;;;12.20;54.40;;;11.22;44.19;95507.03;5076231;28;20446;-62
2022/01/15 07:55:08;;;;;;;19.03;10.73;;;11.60;55.20;;;10.71;45.22;95519.09;5073216;28;20480;-65
2022/01/15 07:57:36;;;;;;;16.30;11.30;;;11.00;56.20;;;10.22;46.09;95518.59;5073723;28;20614;-62
2022/01/15 08:00:07;;;;;;;19.13;10.90;;;10.40;57.30;;;9.85;46.91;95515.38;5070555;28;20807;-62
2022/01/15 08:02:34;;;;;;;18.07;10.87;;;10.00;58.40;;;9.52;47.56;95528.34;5073613;28;20477;-65
2022/01/15 08:05:02;;;;;;;17.33;11.77;;;9.70;60.60;;;9.23;47.92;95537.59;5074572;28;20507;-62
2022/01/15 08:07:29;;;;;;;13.03;9.90;;;9.40;61.60;;;8.86;48.61;95532.47;5073447;28;20779;-66
2022/01/15 08:09:56;;;;;;;18.33;12.00;;;9.10;62.40;;;8.49;49.67;95538.63;5075562;28;20548;-61
2022/01/15 08:12:24;;;;;;;22.40;12.40;;;8.70;64.10;;;8.28;50.12;95545.34;5078126;28;20455;-62
2022/01/15 08:14:51;;;;;;;16.37;11.00;;;8.40;66.90;;;8.10;49.82;95552.72;5073928;28;20465;-61
2022/01/15 08:17:20;;;;;;;15.87;10.73;;;8.20;66.10;;;7.84;50.20;95558.84;5069625;28;20970;-62
2022/01/15 08:19:47;;;;;;;14.80;9.97;;;8.00;66.70;;;7.62;51.44;95569.09;5075909;28;20454;-60
2022/01/15 08:22:15;;;;;;;17.10;11.23;;;7.80;67.50;;;7.50;51.25;95566.38;5077726;28;20491;-61
2022/01/15 08:24:42;;;;;;;15.90;11.20;;;7.60;68.50;;;7.41;51.53;95564.38;5074410;28;20459;-61
2022/01/15 08:27:09;;;;;;;15.43;10.30;;;7.50;69.20;;;7.36;51.67;95566.50;5079150;28;20499;-61
2022/01/15 08:29:37;;;;;;;17.43;10.97;;;7.50;69.90;;;7.31;51.93;95572.03;5070090;28;20466;-62
2022/01/15 08:32:05;;;;;;;15.80;10.67;;;7.40;70.20;;;7.29;52.25;95573.88;5076126;28;20574;-68
2022/01/15 08:34:34;;;;;;;17.17;11.13;;;7.40;70.30;;;7.26;52.01;95575.88;5071882;28;21020;-62
2022/01/15 08:37:01;;;;;;;14.10;10.30;;;7.30;70.90;;;7.25;52.47;95572.44;5070660;28;20489;-66
2022/01/15 08:39:29;;;;;;;16.50;11.20;;;7.40;71.60;;;7.25;52.17;95592.50;5077694;28;20503;-65
2022/01/15 08:41:56;;;;;;;33.13;12.07;;;7.30;71.50;;;7.27;52.62;95591.47;5075536;28;20465;-65
2022/01/15 08:44:25;;;;;;;15.80;10.43;;;7.40;72.00;;;7.32;52.05;95593.78;5075888;28;20449;-63
2022/01/15 08:46:53;;;;;;;16.20;11.10;;;7.40;72.00;;;7.40;52.30;95601.97;5071862;28;20470;-66
2022/01/15 08:49:20;;;;;;;15.33;11.17;;;7.50;71.90;;;7.48;52.05;95597.06;5075226;28;20532;-65
2022/01/15 08:51:49;;;;;;;26.60;10.20;;;7.50;71.80;;;7.50;51.87;95604.81;5078040;28;20558;-65
2022/01/15 08:54:16;;;;;;;16.47;11.87;;;7.60;71.70;;;7.50;53.15;95595.19;5078431;28;20883;-60
2022/01/15 08:56:44;;;;;;;17.57;12.70;;;7.60;73.20;;;7.54;53.86;95593.19;5077475;28;20500;-62
2022/01/15 08:59:11;;;;;;;17.20;10.60;;;7.60;74.40;;;7.51;54.53;95596.00;5077183;28;20451;-63
2022/01/15 09:01:38;;;;;;;17.63;11.70;;;7.60;75.80;;;7.45;53.79;95601.66;5078454;28;20482;-66
2022/01/15 09:04:06;;;;;;;21.40;11.97;;;7.50;74.90;;;7.40;53.69;95601.97;5079351;28;20515;-67
2022/01/15 09:06:33;;;;;;;20.63;11.57;;;7.50;75.50;;;7.34;53.74;95603.22;5081340;28;20482;-65
2022/01/15 09:09:02;;;;;;;16.30;10.70;;;7.50;74.30;;;7.28;53.93;95608.00;5082353;28;20530;-63
2022/01/15 09:11:30;;;;;;;14.20;9.70;;;7.40;74.20;;;7.21;53.78;95611.97;5082269;28;20502;-65
2022/01/15 09:13:57;;;;;;;16.73;10.50;;;7.40;74.20;;;7.15;53.57;95602.75;5078085;28;20535;-64
2022/01/15 09:16:24;;;;;;;18.23;11.40;;;7.30;73.90;;;7.07;53.46;95595.41;5079192;28;20570;-65
2022/01/15 09:18:52;;;;;;;16.97;10.43;;;7.20;73.90;;;7.03;53.80;95609.59;5080240;28;20454;-68
2022/01/15 09:21:19;;;;;;;13.27;9.60;;;7.10;74.60;;;7.00;54.29;95625.50;5078174;28;20851;-64
2022/01/15 09:23:46;;;;;;;14.07;9.20;;;7.10;74.60;;;6.99;54.28;95618.63;5083502;28;20482;-64
2022/01/15 09:26:21;;;;;;;13.93;9.53;;;7.10;75.00;;;7.01;53.70;95621.97;5075135;28;20463;-66
2022/01/15 09:31:35;;;;;;;15.13;10.03;;;7.10;74.80;;;7.03;54.07;95614.00;5075165;28;20617;-63
2022/01/15 09:34:03;;;;;;;15.13;9.80;;;7.10;74.60;;;7.03;54.63;95614.84;5081842;28;20477;-63
2022/01/15 09:36:30;;;;;;;12.47;8.43;;;7.10;76.30;;;7.09;54.20;95616.22;5076785;28;20481;-62
2022/01/15 09:38:57;;;;;;;14.40;9.27;;;7.20;76.10;;;7.13;53.80;95600.25;5074971;28;20451;-63
2022/01/15 09:41:26;;;;;;;21.40;10.83;;;7.20;74.40;;;7.24;53.71;95601.31;5076630;28;20467;-63
2022/01/15 09:43:53;;;;;;;22.23;10.27;;;7.30;75.50;;;7.48;53.78;95602.31;5079724;28;20485;-62
2022/01/15 09:46:21;;;;;;;16.60;9.40;;;7.50;75.50;;;7.92;54.17;95607.22;5073816;28;20469;-63
2022/01/15 09:48:49;;;;;;;24.53;14.43;;;7.80;76.80;;;8.58;52.90;95595.63;5075775;28;20461;-63
2022/01/15 09:51:16;;;;;;;14.40;10.17;;;8.30;75.20;;;9.42;51.97;95592.19;5079006;28;20901;-63
2022/01/15 09:53:43;;;;;;;10.77;8.60;;;9.00;75.70;;;10.19;50.70;95588.97;5074153;28;20450;-63
2022/01/15 09:56:12;;;;;;;9.50;7.40;;;9.70;73.60;;;10.91;48.85;95585.06;5075763;28;20471;-64
2022/01/15 09:58:41;;;;;;;10.03;8.00;;;10.40;69.70;;;11.48;47.36;95588.31;5072601;28;20450;-65
2022/01/15 10:01:08;;;;;;;237.60;23.93;;;11.00;66.60;;;12.01;45.93;95582.16;5075589;28;20478;-72
2022/01/15 10:03:36;;;;;;;18.80;10.50;;;11.50;63.60;;;12.52;44.66;95583.88;5076228;28;20482;-67
2022/01/15 10:06:06;;;;;;;11.93;9.03;;;12.00;61.00;;;13.02;45.31;95585.66;5077528;28;20466;-65
2022/01/15 10:08:33;;;;;;;13.20;8.10;;;12.50;61.70;;;13.49;44.30;95587.66;5079828;28;20538;-65
2022/01/15 10:11:07;;;;;;;12.70;8.83;;;13.00;60.20;;;13.91;43.16;95586.47;5074615;28;20550;-62
2022/01/15 10:13:38;;;;;;;16.67;9.10;;;13.50;58.50;;;14.41;40.58;95599.44;5080938;28;20438;-65
2022/01/15 10:16:18;;;;;;;16.40;9.37;;;13.90;54.90;;;14.86;40.73;95584.59;5072813;28;20459;-63
2022/01/15 10:18:47;;;;;;;10.80;8.43;;;14.30;55.30;;;15.34;40.75;95590.56;5072556;28;20521;-66
2022/01/15 10:21:16;;;;;;;19.67;8.63;;;14.80;55.20;;;15.81;38.80;95586.84;5079872;28;20523;-63
2022/01/15 10:23:48;;;;;;;12.40;8.53;;;15.20;52.70;;;16.09;37.71;95585.69;5079600;28;20955;-66
2022/01/15 10:26:16;;;;;;;13.47;9.50;;;15.60;50.90;;;16.19;38.63;95585.59;5079540;28;20539;-65
2022/01/15 10:28:58;;;;;;;11.80;9.00;;;15.70;49.80;;;16.29;38.08;95581.00;5077632;28;20512;-63
2022/01/15 10:31:28;;;;;;;15.03;9.40;;;15.80;50.70;;;16.55;38.43;95568.69;5079933;28;20555;-63
2022/01/15 10:33:56;;;;;;;14.30;8.67;;;16.00;50.70;;;16.85;38.38;95567.28;5078290;28;20891;-66
2022/01/15 10:36:25;;;;;;;10.80;8.00;;;16.30;50.60;;;17.11;37.70;95566.41;5075918;28;20860;-65
2022/01/15 10:38:53;;;;;;;9.10;7.50;;;16.50;50.00;;;17.22;36.74;95573.25;5075480;28;20470;-63
2022/01/15 10:41:34;;;;;;;12.70;7.60;;;16.70;48.60;;;17.26;36.02;95567.44;5073915;28;20470;-63